1899 NOT_NAMED (1899001S11067)


IBTrACS version v04r00. Visit IBTrACS website for data access.
Please direct all questions to the IBTrACS Q and A forum

Storm track - Intensity - Wind Radii - Intensity Data - Source Data - All data

Summary Information

Storm ID 1899001S11067
Start Jan 1 06Z
End Jan 10 06Z
ATCF IDs
Track status Best track data.

Storm track plot

Map of storm track

Intensity plots

No Intensity information for this storm


Radial wind information

No radial wind information for this storm


Position and Intensity Table

BASIN ISO_TIME_________ NATURE LAT LON
degrees north degrees east
SI 1899-01-01 06:00:00 NR -10.70 66.60
SI 09:00:00 NR -10.86 66.48
SI 12:00:00 NR -11.01 66.35
SI 15:00:00 NR -11.16 66.23
SI 18:00:00 NR -11.30 66.10
SI 21:00:00 NR -11.43 65.97
SI 1899-01-02 00:00:00 NR -11.56 65.84
SI 03:00:00 NR -11.68 65.72
SI 06:00:00 NR -11.80 65.60
SI 09:00:00 NR -11.92 65.49
SI 12:00:00 NR -12.04 65.39
SI 15:00:00 NR -12.17 65.30
SI 18:00:00 NR -12.30 65.20
SI 21:00:00 NR -12.44 65.11
SI 1899-01-03 00:00:00 NR -12.59 65.01
SI 03:00:00 NR -12.75 64.91
SI 06:00:00 NR -12.90 64.80
SI 09:00:00 NR -13.05 64.66
SI 12:00:00 NR -13.21 64.50
SI 15:00:00 NR -13.36 64.34
SI 18:00:00 NR -13.50 64.20
SI 21:00:00 NR -13.62 64.10
SI 1899-01-04 00:00:00 NR -13.74 64.01
SI 03:00:00 NR -13.86 63.91
SI 06:00:00 NR -14.00 63.80
SI 09:00:00 NR -14.16 63.64
SI 12:00:00 NR -14.34 63.46
SI 15:00:00 NR -14.52 63.27
SI 18:00:00 NR -14.70 63.10
SI 21:00:00 NR -14.85 62.96
SI 1899-01-05 00:00:00 NR -15.00 62.84
SI 03:00:00 NR -15.15 62.72
SI 06:00:00 NR -15.30 62.60
SI 09:00:00 NR -15.48 62.45
SI 12:00:00 NR -15.66 62.29
SI 15:00:00 NR -15.84 62.13
SI 18:00:00 NR -16.00 62.00
SI 21:00:00 NR -16.14 61.92
SI 1899-01-06 00:00:00 NR -16.26 61.85
SI 03:00:00 NR -16.38 61.78
SI 06:00:00 NR -16.50 61.70
SI 09:00:00 NR -16.63 61.56
SI 12:00:00 NR -16.78 61.40
SI 15:00:00 NR -16.93 61.24
SI 18:00:00 NR -17.10 61.10
SI 21:00:00 NR -17.29 61.00
SI 1899-01-07 00:00:00 NR -17.50 60.92
SI 03:00:00 NR -17.71 60.86
SI 06:00:00 NR -17.90 60.80
SI 09:00:00 NR -18.06 60.73
SI 12:00:00 NR -18.21 60.68
SI 15:00:00 NR -18.35 60.63
SI 18:00:00 NR -18.50 60.60
SI 21:00:00 NR -18.66 60.58
SI 1899-01-08 00:00:00 NR -18.82 60.58
SI 03:00:00 NR -19.00 60.58
SI 06:00:00 NR -19.20 60.60
SI 09:00:00 NR -19.44 60.61
SI 12:00:00 NR -19.69 60.63
SI 15:00:00 NR -19.95 60.66
SI 18:00:00 NR -20.20 60.70
SI 21:00:00 NR -20.34 60.69
SI 1899-01-09 00:00:00 NR -20.49 60.71
SI 03:00:00 NR -20.69 60.80
SI 06:00:00 NR -21.00 61.00
SI 09:00:00 NR -21.54 61.37
SI 12:00:00 NR -22.19 61.86
SI 15:00:00 NR -22.87 62.42
SI 18:00:00 NR -23.50 63.00
SI 21:00:00 NR -24.02 63.55
SI 1899-01-10 00:00:00 NR -24.43 64.08
SI 03:00:00 NR -24.78 64.60
SI 06:00:00 NR -25.10 65.10

Source Information

Agency Information
USA
TOKYO
CMA
HKO
NEWDELHI
REUNION
BOM
NADI
WELLINGTON
DS824
TD9636 cons_worldwide_trop_cyclone_18710101-19891231-005:Line=2472
TD9635
NEUMANN
MLC

All available IBTrACS Data

SEASON BASIN SUBBASIN ISO_TIME_________ NATURE LAT LON DIST2LAND LANDFALL IFLAG USA SSHS TD9636 LAT TD9636 LON TD9636 STAGE STORM SPEED STORM DIR
Year degrees north degrees east km km 1 degrees north degrees east kts degrees
1899 SI MM 1899-01-01 06:00:00 NR -10.70 66.60 1419 1404 __________O___ -1 -10.70 66.60 7 4 218
1899 SI MM 09:00:00 NR -10.86 66.48 1395 1379 __________P___ -1 -10.86 66.48 7 4 218
1899 SI MM 12:00:00 NR -11.01 66.35 1379 1348 __________P___ -1 -11.01 66.35 7 4 219
1899 SI MM 15:00:00 NR -11.16 66.23 1348 1333 __________P___ -1 -11.16 66.23 7 4 221
1899 SI MM 18:00:00 NR -11.30 66.10 1333 1317 __________O___ -1 -11.30 66.10 7 4 223
1899 SI MM 21:00:00 NR -11.43 65.97 1317 1286 __________P___ -1 -11.43 65.97 7 4 224
1899 SI MM 1899-01-02 00:00:00 NR -11.56 65.84 1286 1270 __________P___ -1 -11.56 65.84 7 4 225
1899 SI MM 03:00:00 NR -11.68 65.72 1270 1255 __________P___ -1 -11.68 65.72 7 3 225
1899 SI MM 06:00:00 NR -11.80 65.60 1255 1239 __________O___ -1 -11.80 65.60 7 3 222
1899 SI MM 09:00:00 NR -11.92 65.49 1239 1223 __________P___ -1 -11.92 65.49 7 3 220
1899 SI MM 12:00:00 NR -12.04 65.39 1223 1199 __________P___ -1 -12.04 65.39 7 3 218
1899 SI MM 15:00:00 NR -12.17 65.30 1199 1184 __________P___ -1 -12.17 65.30 7 3 216
1899 SI MM 18:00:00 NR -12.30 65.20 1184 1168 __________O___ -1 -12.30 65.20 7 3 214
1899 SI MM 21:00:00 NR -12.44 65.11 1168 1144 __________P___ -1 -12.44 65.11 7 3 212
1899 SI MM 1899-01-03 00:00:00 NR -12.59 65.01 1144 1129 __________P___ -1 -12.59 65.01 7 4 212
1899 SI MM 03:00:00 NR -12.75 64.91 1129 1105 __________P___ -1 -12.75 64.91 7 4 214
1899 SI MM 06:00:00 NR -12.90 64.80 1105 1089 __________O___ -1 -12.90 64.80 7 4 219
1899 SI MM 09:00:00 NR -13.05 64.66 1081 1058 __________P___ -1 -13.05 64.66 7 4 224
1899 SI MM 12:00:00 NR -13.21 64.50 1058 1042 __________P___ -1 -13.21 64.50 7 4 225
1899 SI MM 15:00:00 NR -13.36 64.34 1027 1011 __________P___ -1 -13.36 64.34 7 4 225
1899 SI MM 18:00:00 NR -13.50 64.20 1011 996 __________O___ -1 -13.50 64.20 7 4 222
1899 SI MM 21:00:00 NR -13.62 64.10 996 980 __________P___ -1 -13.62 64.10 7 3 218
1899 SI MM 1899-01-04 00:00:00 NR -13.74 64.01 980 956 __________P___ -1 -13.74 64.01 7 3 216
1899 SI MM 03:00:00 NR -13.86 63.91 956 941 __________P___ -1 -13.86 63.91 7 3 218
1899 SI MM 06:00:00 NR -14.00 63.80 941 910 __________O___ -1 -14.00 63.80 7 4 222
1899 SI MM 09:00:00 NR -14.16 63.64 910 894 __________P___ -1 -14.16 63.64 7 5 224
1899 SI MM 12:00:00 NR -14.34 63.46 894 863 __________P___ -1 -14.34 63.46 7 5 225
1899 SI MM 15:00:00 NR -14.52 63.27 863 832 __________P___ -1 -14.52 63.27 7 5 224
1899 SI MM 18:00:00 NR -14.70 63.10 832 817 __________O___ -1 -14.70 63.10 7 4 222
1899 SI MM 21:00:00 NR -14.85 62.96 808 786 __________P___ -1 -14.85 62.96 7 4 220
1899 SI MM 1899-01-05 00:00:00 NR -15.00 62.84 786 770 __________P___ -1 -15.00 62.84 7 4 218
1899 SI MM 03:00:00 NR -15.15 62.72 770 746 __________P___ -1 -15.15 62.72 7 4 218
1899 SI MM 06:00:00 NR -15.30 62.60 746 723 __________O___ -1 -15.30 62.60 7 4 219
1899 SI MM 09:00:00 NR -15.48 62.45 715 700 __________P___ -1 -15.48 62.45 7 5 220
1899 SI MM 12:00:00 NR -15.66 62.29 692 669 __________P___ -1 -15.66 62.29 7 5 220
1899 SI MM 15:00:00 NR -15.84 62.13 669 645 __________P___ -1 -15.84 62.13 7 4 219
1899 SI MM 18:00:00 NR -16.00 62.00 645 630 __________O___ -1 -16.00 62.00 7 4 215
1899 SI MM 21:00:00 NR -16.14 61.92 630 614 __________P___ -1 -16.14 61.92 7 3 209
1899 SI MM 1899-01-06 00:00:00 NR -16.26 61.85 606 598 __________P___ -1 -16.26 61.85 7 3 207
1899 SI MM 03:00:00 NR -16.38 61.78 598 583 __________P___ -1 -16.38 61.78 7 3 211
1899 SI MM 06:00:00 NR -16.50 61.70 583 568 __________O___ -1 -16.50 61.70 7 3 220
1899 SI MM 09:00:00 NR -16.63 61.56 568 537 __________P___ -1 -16.63 61.56 7 4 226
1899 SI MM 12:00:00 NR -16.78 61.40 537 514 __________P___ -1 -16.78 61.40 7 4 226
1899 SI MM 15:00:00 NR -16.93 61.24 514 490 __________P___ -1 -16.93 61.24 7 4 222
1899 SI MM 18:00:00 NR -17.10 61.10 490 467 __________O___ -1 -17.10 61.10 7 4 213
1899 SI MM 21:00:00 NR -17.29 61.00 467 445 __________P___ -1 -17.29 61.00 7 4 203
1899 SI MM 1899-01-07 00:00:00 NR -17.50 60.92 445 430 __________P___ -1 -17.50 60.92 7 4 199
1899 SI MM 03:00:00 NR -17.71 60.86 430 408 __________P___ -1 -17.71 60.86 7 4 195
1899 SI MM 06:00:00 NR -17.90 60.80 408 386 __________O___ -1 -17.90 60.80 7 4 197
1899 SI MM 09:00:00 NR -18.06 60.73 386 380 __________P___ -1 -18.06 60.73 7 3 201
1899 SI MM 12:00:00 NR -18.21 60.68 380 365 __________P___ -1 -18.21 60.68 7 3 198
1899 SI MM 15:00:00 NR -18.35 60.63 358 353 __________P___ -1 -18.35 60.63 7 3 194
1899 SI MM 18:00:00 NR -18.50 60.60 353 347 __________O___ -1 -18.50 60.60 7 3 186
1899 SI MM 21:00:00 NR -18.66 60.58 342 337 __________P___ -1 -18.66 60.58 7 3 0
1899 SI MM 1899-01-08 00:00:00 NR -18.82 60.58 337 327 __________P___ -1 -18.82 60.58 7 3 0
1899 SI MM 03:00:00 NR -19.00 60.58 327 317 __________P___ -1 -19.00 60.58 7 4 0
1899 SI MM 06:00:00 NR -19.20 60.60 317 309 __________O___ -1 -19.20 60.60 7 4 0
1899 SI MM 09:00:00 NR -19.44 60.61 309 300 __________P___ -1 -19.44 60.61 7 5 179
1899 SI MM 12:00:00 NR -19.69 60.63 300 295 __________P___ -1 -19.69 60.63 7 5 175
1899 SI MM 15:00:00 NR -19.95 60.66 304 302 __________P___ -1 -19.95 60.66 7 5 172
1899 SI MM 18:00:00 NR -20.20 60.70 302 302 __________O___ -1 -20.20 60.70 7 4 176
1899 SI MM 21:00:00 NR -20.34 60.69 302 302 __________P___ -1 -20.34 60.69 7 3 0
1899 SI MM 1899-01-09 00:00:00 NR -20.49 60.71 303 303 __________P___ -1 -20.49 60.71 7 4 164
1899 SI MM 03:00:00 NR -20.69 60.80 315 315 __________P___ -1 -20.69 60.80 7 6 152
1899 SI MM 06:00:00 NR -21.00 61.00 341 341 __________O___ -1 -21.00 61.00 7 10 148
1899 SI MM 09:00:00 NR -21.54 61.37 397 397 __________P___ -1 -21.54 61.37 7 14 146
1899 SI MM 12:00:00 NR -22.19 61.86 474 474 __________P___ -1 -22.19 61.86 7 17 144
1899 SI MM 15:00:00 NR -22.87 62.42 554 554 __________P___ -1 -22.87 62.42 7 17 141
1899 SI MM 18:00:00 NR -23.50 63.00 640 640 __________O___ -1 -23.50 63.00 7 16 138
1899 SI MM 21:00:00 NR -24.02 63.55 722 722 __________P___ -1 -24.02 63.55 7 14 133
1899 SI MM 1899-01-10 00:00:00 NR -24.43 64.08 788 788 __________P___ -1 -24.43 64.08 7 12 129
1899 SI MM 03:00:00 NR -24.78 64.60 855 855 __________P___ -1 -24.78 64.60 7 11 126
1899 SI MM 06:00:00 NR -25.10 65.10 915 __________O___ -1 -25.10 65.10 7 11 125